Dati Storici

Data ora Umidita' aria (%) Temperatura aria (°C) Rad globale (W/m²) Gonioanemometro (°) Tacoanemometro (m/s) Pioggia (mm)
10-06-2020 14:50 71.9 % 19.883 -81.419 1.692 0 0
10-06-2020 14:40 71.3 % 20.282 -76.843 4.899 0 0
10-06-2020 14:30 72 % 19.722 -75.462 1.493 0 0
10-06-2020 14:20 72.8 % 19.788 -81.303 1.878 0 0
10-06-2020 14:10 68.7 % 19.95 -73.536 1.874 0 0
10-06-2020 14:00 62.7 % 21.901 -72.394 1.47 0 0
10-06-2020 13:50 64.8 % 22.046 -68.59 1.37 0 0
10-06-2020 13:40 66.3 % 21.748 -80.304 -0.01 0 0
10-06-2020 13:30 63.9 % 21.635 -71.228 2.343 0 0
10-06-2020 13:20 63.9 % 22.033 -67.955 3.17 0 0
10-06-2020 13:10 62.8 % 21.399 -72.052 0.219 0 0
10-06-2020 13:00 61.5 % 22.242 -66.963 2.296 0 0
10-06-2020 12:50 60.5 % 21.551 -75.1 0.922 0 0
10-06-2020 12:40 56.6 % 21.643 -68.679 2.525 0 0
10-06-2020 12:30 60.4 % 21.756 -72.858 1.307 0 0
10-06-2020 12:20 62.5 % 21.387 -68.367 -0.006 0 0
10-06-2020 12:10 62.9 % 22.386 -70.113 1.686 0 0
10-06-2020 12:00 63.8 % 21.97 -72.853 1.415 0 0
10-06-2020 11:50 65.6 % 21.529 -72.64 0.982 0 0
10-06-2020 11:40 66.8 % 20.862 -72.454 0.623 0 0

I dati sono presentati in modo automatico a scopo informativo. In seguito a verifica i dati possono subire modifiche o essere invalidati e non riportati negli archivi definitivi.